Time;durP1;ratioP1;P1;durP2;ratioP2;P2;SDS_P1;SDS_P2;PMS_P1;PMS_P2;Temp;Humidity;BMP_temperature;BMP_pressure;BME280_temperature;BME280_humidity;BME280_pressure;Samples;Min_cycle;Max_cycle;Signal;HPM_P1;HPM_P2
2022/08/16 00:01:07;;;;;;;0.30;0.30;;;;;;;24.00;64.29;100594.78;1956828;30;20506;-64
2022/08/16 00:02:12;;;;;;;0.30;0.30;;;;;;;23.95;64.51;100592.53;1958873;30;20052;-64
2022/08/16 00:03:16;;;;;;;0.30;0.30;;;;;;;23.95;64.31;100598.06;1945363;30;20065;-64
2022/08/16 00:04:20;;;;;;;0.30;0.30;;;;;;;23.90;64.64;100587.56;1946666;30;20046;-63
2022/08/16 00:05:24;;;;;;;0.30;0.30;;;;;;;23.95;64.20;100584.25;1945869;30;20832;-62
2022/08/16 00:06:40;;;;;;;0.32;0.32;;;;;;;23.94;64.34;100602.03;1948505;30;20065;-62
2022/08/16 00:07:45;;;;;;;0.30;0.30;;;;;;;23.85;64.96;100592.84;1949859;30;20049;-64
2022/08/16 00:08:49;;;;;;;0.40;0.40;;;;;;;23.90;64.35;100593.06;1952598;30;20242;-63
2022/08/16 00:09:54;;;;;;;0.30;0.30;;;;;;;23.89;64.47;100594.28;1948224;30;20442;-65
2022/08/16 00:11:01;;;;;;;0.30;0.30;;;;;;;23.89;64.32;100591.53;1950300;30;20056;-64
2022/08/16 00:12:05;;;;;;;0.30;0.30;;;;;;;23.87;64.71;100590.41;1954948;30;20060;-65
2022/08/16 00:13:11;;;;;;;0.30;0.30;;;;;;;23.88;64.49;100592.72;1956205;30;20056;-64
2022/08/16 00:14:23;;;;;;;0.20;0.20;;;;;;;23.88;64.48;100592.72;1960005;30;20083;-64
2022/08/16 00:15:33;;;;;;;0.30;0.30;;;;;;;23.86;64.60;100588.88;1956818;30;20056;-64
2022/08/16 00:16:58;;;;;;;0.30;0.30;;;;;;;23.80;64.76;100590.63;1949860;30;20099;-64
2022/08/16 00:18:18;;;;;;;0.30;0.30;;;;;;;23.74;65.05;100592.38;1949357;30;20144;-63
2022/08/16 00:19:34;;;;;;;0.28;0.28;;;;;;;23.77;64.70;100588.72;1955474;30;20629;-63
2022/08/16 00:20:46;;;;;;;0.30;0.30;;;;;;;23.77;64.72;100586.72;1952832;30;20061;-63
2022/08/16 00:21:54;;;;;;;0.30;0.30;;;;;;;23.72;65.26;100592.03;1952698;30;20418;-62
2022/08/16 00:23:05;;;;;;;0.30;0.30;;;;;;;23.74;64.91;100593.13;1950932;30;20099;-63
2022/08/16 00:24:16;;;;;;;0.30;0.30;;;;;;;23.72;64.95;100590.03;1958577;30;20415;-64
2022/08/16 00:25:34;;;;;;;0.30;0.30;;;;;;;23.67;64.93;100587.81;1950269;30;20073;-63
2022/08/16 00:27:01;;;;;;;0.30;0.30;;;;;;;23.62;65.39;100591.09;1952229;30;20578;-63
2022/08/16 00:28:05;;;;;;;0.38;0.38;;;;;;;23.62;65.33;100591.09;1955206;30;20068;-62
2022/08/16 00:29:12;;;;;;;0.35;0.35;;;;;;;23.61;65.38;100595.03;1956351;30;20079;-62
2022/08/16 00:30:20;;;;;;;0.28;0.28;;;;;;;23.59;65.34;100583.69;1960264;30;20056;-63
2022/08/16 00:31:34;;;;;;;0.30;0.30;;;;;;;23.52;65.94;100583.88;1949172;30;20099;-62
2022/08/16 00:33:00;;;;;;;0.30;0.30;;;;;;;23.51;65.64;100585.09;1950606;30;20099;-62
2022/08/16 00:34:05;;;;;;;0.30;0.30;;;;;;;23.52;65.44;100592.16;1937014;30;20597;-62
2022/08/16 00:35:13;;;;;;;0.32;0.32;;;;;;;23.53;65.50;100588.19;1940395;30;20495;-63
2022/08/16 00:36:18;;;;;;;0.30;0.30;;;;;;;23.50;65.59;100583.53;1951277;30;20195;-63
2022/08/16 00:37:24;;;;;;;0.30;0.30;;;;;;;23.52;65.39;100586.63;1951358;30;20076;-63
2022/08/16 00:38:49;;;;;;;0.30;0.30;;;;;;;23.48;65.81;100580.47;1957131;30;20053;-61
2022/08/16 00:39:53;;;;;;;0.40;0.40;;;;;;;23.51;65.48;100591.41;1949048;30;20061;-63
2022/08/16 00:41:02;;;;;;;0.30;0.30;;;;;;;23.50;65.38;100587.06;1949191;30;20057;-63
2022/08/16 00:42:08;;;;;;;0.30;0.30;;;;;;;23.50;65.67;100580.78;1963123;30;20110;-63
2022/08/16 00:43:16;;;;;;;0.30;0.30;;;;;;;23.49;65.45;100576.47;1955990;30;20060;-63
2022/08/16 00:44:21;;;;;;;0.30;0.30;;;;;;;23.48;65.38;100580.47;1953188;30;20465;-63
2022/08/16 00:45:48;;;;;;;0.20;0.20;;;;;;;23.49;65.49;100579.25;1957444;30;20149;-63
2022/08/16 00:47:07;;;;;;;0.30;0.30;;;;;;;23.49;65.48;100587.50;1959689;30;20425;-62
2022/08/16 00:48:15;;;;;;;0.30;0.30;;;;;;;23.49;65.56;100570.97;1955317;30;20057;-62
2022/08/16 00:49:34;;;;;;;0.30;0.30;;;;;;;23.48;65.60;100566.69;1950064;30;20521;-63
2022/08/16 00:50:46;;;;;;;0.20;0.20;;;;;;;23.51;65.53;100574.06;1952947;30;20064;-63
2022/08/16 00:51:58;;;;;;;0.25;0.25;;;;;;;23.49;65.48;100576.47;1947262;30;20061;-62
2022/08/16 00:53:02;;;;;;;0.30;0.30;;;;;;;23.51;65.83;100571.31;1947942;30;20114;-62
2022/08/16 00:54:07;;;;;;;0.30;0.30;;;;;;;23.52;65.54;100576.41;1954945;30;20102;-63
2022/08/16 00:55:13;;;;;;;0.30;0.30;;;;;;;23.51;65.67;100574.84;1959330;30;20497;-63
2022/08/16 00:56:23;;;;;;;0.30;0.30;;;;;;;23.53;65.37;100574.41;1953711;30;20049;-62
2022/08/16 00:57:50;;;;;;;0.30;0.30;;;;;;;23.47;65.54;100576.91;1949979;30;20604;-65
2022/08/16 00:59:05;;;;;;;0.30;0.30;;;;;;;23.48;65.46;100569.44;1956087;30;20088;-63
2022/08/16 01:00:09;;;;;;;0.20;0.20;;;;;;;23.48;65.51;100580.47;1948585;30;20053;-63
2022/08/16 01:01:22;;;;;;;0.30;0.30;;;;;;;23.44;65.75;100574.25;1951570;30;20479;-63
2022/08/16 01:02:25;;;;;;;0.30;0.30;;;;;;;23.48;65.52;100574.94;1949808;30;20125;-64
2022/08/16 01:03:37;;;;;;;0.30;0.30;;;;;;;23.49;65.53;100571.75;1946726;30;20123;-64
2022/08/16 01:04:44;;;;;;;0.30;0.30;;;;;;;23.45;65.66;100571.06;1945535;30;20063;-63
2022/08/16 01:06:09;;;;;;;0.20;0.20;;;;;;;23.46;65.35;100575.38;1952129;30;20125;-63
2022/08/16 01:07:33;;;;;;;0.30;0.30;;;;;;;23.41;65.76;100575.13;1950939;30;20053;-63
2022/08/16 01:08:58;;;;;;;0.30;0.30;;;;;;;23.41;65.77;100566.84;1937408;30;20066;-64
2022/08/16 01:10:02;;;;;;;0.22;0.22;;;;;;;23.36;65.84;100567.38;1945825;30;20096;-63
2022/08/16 01:11:20;;;;;;;0.30;0.30;;;;;;;23.32;66.31;100561.19;1959897;30;20135;-62
2022/08/16 01:12:24;;;;;;;0.30;0.30;;;;;;;23.31;66.28;100563.16;1951317;30;20089;-64
2022/08/16 01:13:34;;;;;;;0.30;0.30;;;;;;;23.32;66.29;100572.22;1944534;30;20481;-63
2022/08/16 01:14:42;;;;;;;0.30;0.30;;;;;;;23.28;66.29;100566.78;1947778;30;20061;-64
2022/08/16 01:15:52;;;;;;;0.30;0.30;;;;;;;23.29;66.34;100570.31;1951046;30;20103;-63
2022/08/16 01:16:58;;;;;;;0.30;0.30;;;;;;;23.27;66.12;100568.00;1950743;30;20061;-63
2022/08/16 01:18:05;;;;;;;0.30;0.30;;;;;;;23.28;66.39;100566.78;1959745;30;20061;-63
2022/08/16 01:19:16;;;;;;;0.30;0.30;;;;;;;23.31;66.14;100573.41;1953272;30;20084;-64
2022/08/16 01:20:24;;;;;;;0.20;0.20;;;;;;;23.30;66.22;100563.59;1950306;30;20049;-62
2022/08/16 01:21:43;;;;;;;0.30;0.30;;;;;;;23.28;65.81;100572.31;1954190;30;20061;-63
2022/08/16 01:22:51;;;;;;;0.30;0.30;;;;;;;23.27;66.20;100569.97;1954323;30;20061;-63
2022/08/16 01:24:23;;;;;;;0.30;0.30;;;;;;;23.22;66.33;100573.22;1955149;30;20061;-62
2022/08/16 01:25:49;;;;;;;0.30;0.30;;;;;;;23.15;66.88;100567.91;1943186;30;20065;-64
2022/08/16 01:27:17;;;;;;;0.30;0.30;;;;;;;23.17;66.58;100566.25;1945818;30;20061;-64
2022/08/16 01:28:20;;;;;;;0.30;0.30;;;;;;;23.17;66.63;100565.47;1955970;30;20052;-64
2022/08/16 01:29:29;;;;;;;0.30;0.30;;;;;;;23.21;66.37;100568.94;1954791;30;20446;-64
2022/08/16 01:30:56;;;;;;;0.30;0.30;;;;;;;23.15;66.74;100573.41;1952475;30;20563;-65
2022/08/16 01:32:00;;;;;;;0.30;0.30;;;;;;;23.12;66.63;100564.03;1958369;30;20069;-63
2022/08/16 01:33:04;;;;;;;0.32;0.32;;;;;;;23.17;66.31;100562.72;1956939;30;20399;-63
2022/08/16 01:34:19;;;;;;;0.30;0.30;;;;;;;23.13;66.92;100567.56;1950754;30;20079;-64
2022/08/16 01:35:34;;;;;;;0.32;0.32;;;;;;;23.09;66.79;100564.09;1953885;30;20252;-64
2022/08/16 01:36:40;;;;;;;0.30;0.30;;;;;;;23.08;66.82;100568.88;1960649;30;20073;-65
2022/08/16 01:37:45;;;;;;;0.40;0.40;;;;;;;23.09;66.76;100559.38;1956178;30;20048;-64
2022/08/16 01:38:57;;;;;;;0.30;0.30;;;;;;;23.08;66.71;100559.81;1948311;30;20140;-64
2022/08/16 01:40:02;;;;;;;0.30;0.30;;;;;;;23.10;66.91;100562.91;1936490;30;20610;-64
2022/08/16 01:41:11;;;;;;;0.30;0.30;;;;;;;23.11;66.41;100572.72;1954180;30;20563;-64
2022/08/16 01:42:20;;;;;;;0.30;0.30;;;;;;;23.10;66.58;100560.16;1959924;30;20056;-65
2022/08/16 01:43:27;;;;;;;0.20;0.20;;;;;;;23.10;66.43;100571.94;1954031;30;20056;-64
2022/08/16 01:44:33;;;;;;;0.30;0.30;;;;;;;23.13;66.42;100565.59;1949317;30;20554;-63
2022/08/16 01:45:40;;;;;;;0.30;0.30;;;;;;;23.13;66.71;100564.81;1938666;30;20053;-63
2022/08/16 01:46:47;;;;;;;0.30;0.30;;;;;;;23.13;67.10;100570.31;1937349;30;20084;-63
2022/08/16 01:47:54;;;;;;;0.30;0.30;;;;;;;23.16;66.64;100566.69;1953934;30;20061;-63
2022/08/16 01:49:05;;;;;;;0.30;0.30;;;;;;;23.17;66.39;100563.50;1959414;30;20572;-63
2022/08/16 01:50:09;;;;;;;0.30;0.30;;;;;;;23.18;66.17;100572.56;1950901;30;20077;-64
2022/08/16 01:51:32;;;;;;;0.20;0.20;;;;;;;23.16;66.27;100569.44;1949376;30;20184;-63
2022/08/16 01:52:41;;;;;;;0.30;0.30;;;;;;;23.15;66.16;100573.41;1945210;30;20083;-63
2022/08/16 01:54:11;;;;;;;0.30;0.30;;;;;;;23.10;66.35;100571.19;1944346;30;20152;-63
2022/08/16 01:55:26;;;;;;;0.30;0.30;;;;;;;23.11;66.67;100569.97;1945108;30;20494;-63
2022/08/16 01:56:38;;;;;;;0.38;0.38;;;;;;;23.07;66.79;100569.28;1943081;30;20084;-62
2022/08/16 01:57:42;;;;;;;0.20;0.20;;;;;;;23.07;66.58;100561.03;1948514;30;20411;-63
2022/08/16 01:59:01;;;;;;;0.20;0.20;;;;;;;23.05;66.59;100571.69;1954572;30;20601;-65
2022/08/16 02:00:08;;;;;;;0.30;0.30;;;;;;;23.00;66.98;100578.50;1950492;30;20498;-63
2022/08/16 02:01:22;;;;;;;0.30;0.30;;;;;;;22.99;67.41;100571.44;1937468;30;20092;-63
2022/08/16 02:02:29;;;;;;;0.32;0.32;;;;;;;22.98;67.04;100575.41;1950083;30;20154;-63
2022/08/16 02:03:32;;;;;;;0.40;0.40;;;;;;;22.94;67.02;100573.94;1956829;30;20518;-63
2022/08/16 02:04:34;;;;;;;0.30;0.30;;;;;;;22.93;67.44;100572.41;1957253;30;20617;-63
2022/08/16 02:05:57;;;;;;;0.40;0.40;;;;;;;22.87;67.18;100574.88;1949464;30;20515;-63
2022/08/16 02:07:07;;;;;;;0.35;0.35;;;;;;;22.89;67.19;100574.44;1951758;30;20522;-63
2022/08/16 02:08:13;;;;;;;;;;;;;;;22.69;67.96;100569.00;1949703;30;20299;-63
2022/08/16 02:09:36;;;;;;;0.30;0.30;;;;;;;22.76;67.69;100570.81;1950540;30;19981;-63
2022/08/16 02:10:43;;;;;;;0.30;0.30;;;;;;;22.78;67.57;100573.94;1955496;30;20056;-63
2022/08/16 02:11:49;;;;;;;0.30;0.30;;;;;;;22.77;67.58;100569.63;1952897;30;20057;-63
2022/08/16 02:12:56;;;;;;;0.35;0.35;;;;;;;22.68;68.20;100574.94;1943574;30;20421;-63
2022/08/16 02:14:03;;;;;;;0.30;0.30;;;;;;;22.66;68.13;100578.13;1943970;30;20100;-63
2022/08/16 02:15:21;;;;;;;0.30;0.30;;;;;;;22.60;68.49;100570.81;1954628;30;20501;-62
2022/08/16 02:16:27;;;;;;;0.30;0.30;;;;;;;22.54;68.45;100578.03;1953557;30;20526;-63
2022/08/16 02:17:31;;;;;;;0.40;0.40;;;;;;;22.49;68.98;100570.25;1958368;30;20492;-63
2022/08/16 02:18:33;;;;;;;0.30;0.30;;;;;;;22.53;68.62;100568.22;1959815;30;20063;-63
2022/08/16 02:19:39;;;;;;;0.30;0.30;;;;;;;22.54;68.42;100575.28;1952568;30;20065;-63
2022/08/16 02:21:04;;;;;;;0.32;0.32;;;;;;;22.53;68.63;100577.28;1956603;30;20204;-64
2022/08/16 02:22:09;;;;;;;0.30;0.30;;;;;;;22.58;67.92;100578.72;1954752;30;20529;-64
2022/08/16 02:23:34;;;;;;;0.38;0.38;;;;;;;22.55;68.71;100574.09;1956399;30;20124;-63
2022/08/16 02:24:38;;;;;;;0.30;0.30;;;;;;;22.55;68.09;100580.34;1957404;30;20068;-63
2022/08/16 02:25:46;;;;;;;0.38;0.38;;;;;;;22.57;68.38;100579.91;1959601;30;20104;-63
2022/08/16 02:26:55;;;;;;;0.40;0.40;;;;;;;22.56;68.05;100581.13;1959817;30;20098;-63
2022/08/16 02:28:00;;;;;;;0.40;0.40;;;;;;;22.55;68.32;100580.34;1955863;30;20536;-63
2022/08/16 02:29:02;;;;;;;0.40;0.40;;;;;;;22.57;67.89;100577.16;1949824;30;20092;-62
2022/08/16 02:30:11;;;;;;;0.40;0.40;;;;;;;22.52;68.69;100581.19;1949170;30;20522;-63
2022/08/16 02:31:34;;;;;;;0.40;0.40;;;;;;;22.42;68.69;100575.91;1950401;30;20517;-63
2022/08/16 02:32:56;;;;;;;0.50;0.50;;;;;;;22.37;68.74;100573.66;1948192;30;20157;-63
2022/08/16 02:34:00;;;;;;;0.30;0.30;;;;;;;22.36;68.95;100583.13;1951755;30;20562;-63
2022/08/16 02:35:12;;;;;;;0.40;0.40;;;;;;;22.33;69.30;100579.25;1949363;30;20127;-63
2022/08/16 02:36:18;;;;;;;0.40;0.40;;;;;;;22.34;69.31;100580.03;1944203;30;20062;-64
2022/08/16 02:37:44;;;;;;;0.50;0.50;;;;;;;22.23;69.80;100583.78;1944560;30;20056;-63
2022/08/16 02:38:55;;;;;;;0.40;0.40;;;;;;;22.23;69.88;100580.25;1949524;30;20065;-63
2022/08/16 02:39:59;;;;;;;0.40;0.40;;;;;;;22.27;69.58;100588.41;1955679;30;20113;-63
2022/08/16 02:41:07;;;;;;;0.40;0.40;;;;;;;22.31;69.28;100581.63;1949796;30;20134;-62
2022/08/16 02:42:14;;;;;;;0.40;0.40;;;;;;;22.30;69.30;100579.31;1957153;30;20068;-64
2022/08/16 02:43:20;;;;;;;0.30;0.30;;;;;;;22.25;69.22;100574.34;1950325;30;20053;-63
2022/08/16 02:44:31;;;;;;;0.40;0.40;;;;;;;22.26;69.60;100581.38;1937745;30;20366;-63
2022/08/16 02:45:33;;;;;;;0.32;0.32;;;;;;;22.23;70.02;100575.53;1930608;30;20264;-63
2022/08/16 02:46:37;;;;;;;0.30;0.30;;;;;;;22.28;69.75;100576.22;1942252;30;20066;-64
2022/08/16 02:47:51;;;;;;;0.32;0.32;;;;;;;22.30;69.41;100576.56;1951082;30;20109;-64
2022/08/16 02:49:15;;;;;;;0.40;0.40;;;;;;;22.29;69.16;100581.31;1952967;30;20116;-63
2022/08/16 02:50:18;;;;;;;0.32;0.32;;;;;;;22.30;69.20;100573.81;1956946;30;20127;-63
2022/08/16 02:51:42;;;;;;;0.40;0.40;;;;;;;22.25;69.46;100574.34;1949915;30;20053;-62
2022/08/16 02:52:47;;;;;;;0.30;0.30;;;;;;;22.29;69.12;100573.06;1962298;30;20064;-62
2022/08/16 02:53:52;;;;;;;0.30;0.30;;;;;;;22.30;69.08;100574.59;1953305;30;20056;-63
2022/08/16 02:54:57;;;;;;;0.40;0.40;;;;;;;22.30;69.07;100574.59;1946133;30;20140;-64
2022/08/16 02:56:01;;;;;;;0.40;0.40;;;;;;;22.26;69.01;100573.91;1953401;30;20139;-63
2022/08/16 02:57:04;;;;;;;0.30;0.30;;;;;;;22.25;69.34;100577.09;1959015;30;20481;-62
2022/08/16 02:58:10;;;;;;;0.30;0.30;;;;;;;22.14;70.12;100580.03;1956924;30;20061;-62
2022/08/16 02:59:14;;;;;;;0.40;0.40;;;;;;;22.13;69.51;100571.03;1948534;30;20110;-62
2022/08/16 03:00:18;;;;;;;0.40;0.40;;;;;;;22.11;69.92;100578.94;1950273;30;20061;-62
2022/08/16 03:01:37;;;;;;;0.37;0.37;;;;;;;22.07;70.30;100571.97;1951699;30;20525;-63
2022/08/16 03:02:47;;;;;;;0.40;0.40;;;;;;;22.06;69.77;100582.16;1948241;30;20930;-62
2022/08/16 03:03:58;;;;;;;0.40;0.40;;;;;;;22.07;70.26;100572.72;1950127;30;20135;-62
2022/08/16 03:05:22;;;;;;;0.40;0.40;;;;;;;22.06;69.65;100576.66;1944100;30;20053;-62
2022/08/16 03:06:25;;;;;;;0.40;0.40;;;;;;;22.11;69.78;100576.19;1942064;30;20072;-65
2022/08/16 03:07:53;;;;;;;0.32;0.32;;;;;;;22.05;70.28;100575.13;1944301;30;20100;-62
2022/08/16 03:08:56;;;;;;;0.30;0.30;;;;;;;22.12;69.99;100582.44;1939518;30;20187;-63
2022/08/16 03:10:01;;;;;;;0.32;0.32;;;;;;;22.11;69.59;100581.69;1942178;30;20131;-63
2022/08/16 03:11:06;;;;;;;0.40;0.40;;;;;;;22.12;70.14;100574.19;1938863;30;20050;-63
2022/08/16 03:12:22;;;;;;;0.40;0.40;;;;;;;22.12;69.88;100574.97;1944389;30;20148;-62
2022/08/16 03:13:31;;;;;;;0.40;0.40;;;;;;;22.10;70.18;100571.88;1946612;30;20175;-63
2022/08/16 03:14:43;;;;;;;0.40;0.40;;;;;;;22.11;69.80;100570.69;1935667;30;20523;-63
2022/08/16 03:15:47;;;;;;;0.40;0.40;;;;;;;22.14;69.78;100566.28;1941981;30;20082;-63
2022/08/16 03:16:53;;;;;;;0.40;0.40;;;;;;;22.13;69.48;100562.78;1942778;30;20061;-64
2022/08/16 03:18:03;;;;;;;0.40;0.40;;;;;;;22.16;69.74;100575.69;1935801;30;20546;-63
2022/08/16 03:19:15;;;;;;;0.40;0.40;;;;;;;22.15;69.68;100568.63;1942732;30;20049;-64
2022/08/16 03:20:18;;;;;;;0.40;0.40;;;;;;;22.17;69.51;100566.22;1955192;30;20143;-64
2022/08/16 03:21:22;;;;;;;0.40;0.40;;;;;;;22.14;70.08;100572.56;1955422;30;20200;-63
2022/08/16 03:22:24;;;;;;;0.30;0.30;;;;;;;22.15;69.67;100563.13;1948463;30;20060;-64
2022/08/16 03:23:31;;;;;;;0.30;0.30;;;;;;;22.17;69.82;100568.97;1955895;30;20537;-63
2022/08/16 03:24:37;;;;;;;0.40;0.40;;;;;;;22.16;69.37;100559.19;1950683;30;20064;-65
2022/08/16 03:25:40;;;;;;;0.30;0.30;;;;;;;22.12;69.80;100561.22;1938816;30;20204;-63
2022/08/16 03:26:46;;;;;;;0.30;0.30;;;;;;;22.08;69.96;100562.50;1950136;30;20061;-66
2022/08/16 03:27:54;;;;;;;0.40;0.40;;;;;;;22.06;70.06;100565.66;1956191;30;20052;-62
2022/08/16 03:28:57;;;;;;;0.38;0.38;;;;;;;22.03;70.13;100560.25;1947059;30;20427;-63
2022/08/16 03:30:05;;;;;;;0.40;0.40;;;;;;;21.94;70.51;100560.84;1940772;30;20123;-62
2022/08/16 03:31:46;;;;;;;0.32;0.32;;;;;;;21.75;71.06;100545.13;1953861;30;20068;-63
2022/08/16 03:32:54;;;;;;;0.40;0.40;;;;;;;21.72;71.52;100548.66;1938219;30;20061;-63
2022/08/16 03:33:59;;;;;;;0.40;0.40;;;;;;;21.65;71.84;100546.06;1942382;30;20080;-63
2022/08/16 03:35:03;;;;;;;0.40;0.40;;;;;;;21.70;71.42;100547.53;1954236;30;20057;-62
2022/08/16 03:36:07;;;;;;;0.40;0.40;;;;;;;21.66;71.23;100553.09;1953364;30;20227;-63
2022/08/16 03:37:32;;;;;;;0.40;0.40;;;;;;;21.61;71.95;100556.31;1948318;30;20466;-62
2022/08/16 03:38:55;;;;;;;0.30;0.30;;;;;;;21.60;71.77;100551.25;1948320;30;20476;-63
2022/08/16 03:39:58;;;;;;;0.40;0.40;;;;;;;21.63;71.75;100548.44;1947023;30;20053;-64
2022/08/16 03:41:06;;;;;;;0.40;0.40;;;;;;;21.61;72.04;100556.31;1931468;30;20058;-61
2022/08/16 03:42:25;;;;;;;0.30;0.30;;;;;;;21.61;71.35;100548.09;1946001;30;20093;-62
2022/08/16 03:43:33;;;;;;;0.30;0.30;;;;;;;21.63;71.23;100553.16;1956094;30;20513;-63
2022/08/16 03:44:54;;;;;;;0.32;0.32;;;;;;;21.57;71.93;100550.13;1956287;30;20520;-63
2022/08/16 03:46:10;;;;;;;0.40;0.40;;;;;;;21.58;72.18;100557.19;1950460;30;20052;-63
2022/08/16 03:47:13;;;;;;;0.35;0.35;;;;;;;21.58;71.85;100553.66;1950462;30;20202;-63
2022/08/16 03:48:23;;;;;;;0.40;0.40;;;;;;;21.59;71.29;100557.97;1949565;30;20618;-62
2022/08/16 03:49:47;;;;;;;0.30;0.30;;;;;;;21.51;72.20;100562.03;1951101;30;20057;-63
2022/08/16 03:50:53;;;;;;;0.40;0.40;;;;;;;21.49;72.16;100556.97;1953137;30;20052;-63
2022/08/16 03:52:03;;;;;;;0.40;0.40;;;;;;;21.43;72.50;100560.63;1955509;30;20053;-62
2022/08/16 03:53:07;;;;;;;0.30;0.30;;;;;;;21.45;72.19;100561.75;1943580;30;20092;-65
2022/08/16 03:54:11;;;;;;;0.38;0.38;;;;;;;21.40;72.13;100561.47;1945977;30;20085;-63
2022/08/16 03:55:16;;;;;;;0.38;0.38;;;;;;;21.41;72.05;100552.78;1943659;30;20133;-63
2022/08/16 03:56:22;;;;;;;0.30;0.30;;;;;;;21.35;72.89;100553.69;1941032;30;20143;-62
2022/08/16 03:57:27;;;;;;;0.38;0.38;;;;;;;21.31;72.63;100542.75;1940201;30;20054;-62
2022/08/16 03:58:42;;;;;;;0.30;0.30;;;;;;;21.26;72.85;100546.03;1952643;30;20453;-62
2022/08/16 03:59:45;;;;;;;0.35;0.35;;;;;;;21.23;72.62;100552.31;1949574;30;20554;-62
2022/08/16 04:00:49;;;;;;;0.38;0.38;;;;;;;21.19;73.13;100545.34;1948967;30;20612;-62
2022/08/16 04:02:00;;;;;;;0.40;0.40;;;;;;;21.17;73.17;100548.50;1952494;30;20479;-62
2022/08/16 04:03:06;;;;;;;0.30;0.30;;;;;;;21.15;73.41;100553.66;1955647;30;20057;-63
2022/08/16 04:04:14;;;;;;;0.40;0.40;;;;;;;21.16;73.25;100546.97;1948364;30;20060;-62
2022/08/16 04:05:35;;;;;;;0.40;0.40;;;;;;;21.12;72.79;100561.97;1950810;30;20099;-63
2022/08/16 04:06:39;;;;;;;0.40;0.40;;;;;;;21.09;73.49;100547.09;1950205;30;20065;-63
2022/08/16 04:07:42;;;;;;;0.50;0.50;;;;;;;21.11;73.47;100555.69;1942904;30;20077;-62
2022/08/16 04:08:44;;;;;;;0.50;0.50;;;;;;;21.12;72.92;100551.75;1943817;30;20498;-63
2022/08/16 04:09:49;;;;;;;0.50;0.50;;;;;;;21.10;73.21;100553.34;1944060;30;20280;-63
2022/08/16 04:10:53;;;;;;;0.50;0.50;;;;;;;21.12;73.11;100557.22;1957864;30;20131;-63
2022/08/16 04:11:57;;;;;;;0.50;0.50;;;;;;;21.11;72.83;100558.44;1955802;30;20076;-65
2022/08/16 04:13:00;;;;;;;0.50;0.50;;;;;;;21.12;73.14;100559.97;1955563;30;20076;-64
2022/08/16 04:14:09;;;;;;;0.50;0.50;;;;;;;21.11;72.97;100560.38;1949074;30;20121;-61
2022/08/16 04:15:32;;;;;;;0.60;0.60;;;;;;;21.07;73.45;100571.47;1941981;30;20049;-63
2022/08/16 04:17:01;;;;;;;0.60;0.60;;;;;;;21.05;73.33;100559.31;1949341;30;20123;-62
2022/08/16 04:18:10;;;;;;;0.40;0.40;;;;;;;21.06;73.46;100564.41;1956432;30;20060;-63
2022/08/16 04:19:13;;;;;;;0.50;0.50;;;;;;;21.09;72.97;100565.53;1949134;30;20072;-62
2022/08/16 04:20:16;;;;;;;0.50;0.50;;;;;;;21.10;73.25;100576.09;1929457;30;20408;-62
2022/08/16 04:21:37;;;;;;;0.50;0.50;;;;;;;21.09;72.99;100569.03;1942750;30;20069;-63
2022/08/16 04:22:51;;;;;;;0.47;0.47;;;;;;;21.08;72.86;100581.22;1948165;30;20538;-63
2022/08/16 04:23:55;;;;;;;0.50;0.50;;;;;;;21.09;73.17;100569.03;1944883;30;20165;-62
2022/08/16 04:24:58;;;;;;;0.60;0.60;;;;;;;21.10;73.12;100573.38;1946016;30;20083;-62
2022/08/16 04:26:08;;;;;;;0.50;0.50;;;;;;;21.08;73.11;100573.00;1957239;30;20056;-64
2022/08/16 04:27:18;;;;;;;0.50;0.50;;;;;;;21.07;73.15;100559.69;1956088;30;20041;-62
2022/08/16 04:28:21;;;;;;;0.50;0.50;;;;;;;21.08;73.25;100567.50;1960874;30;20064;-62
2022/08/16 04:29:46;;;;;;;0.50;0.50;;;;;;;21.08;73.24;100567.50;1953702;30;20061;-63
2022/08/16 04:30:54;;;;;;;0.52;0.52;;;;;;;21.09;72.80;100574.53;1949602;30;20065;-63
2022/08/16 04:31:57;;;;;;;0.50;0.50;;;;;;;21.08;73.34;100564.75;1950964;30;20075;-63
2022/08/16 04:33:07;;;;;;;0.52;0.52;;;;;;;21.10;72.89;100570.63;1948915;30;20058;-63
2022/08/16 04:34:11;;;;;;;0.60;0.60;;;;;;;21.09;73.13;100566.31;1947733;30;20114;-62
2022/08/16 04:35:18;;;;;;;0.50;0.50;;;;;;;21.12;72.80;100568.22;1946245;30;20060;-63
2022/08/16 04:36:21;;;;;;;0.50;0.50;;;;;;;21.09;73.19;100569.03;1959749;30;20056;-62
2022/08/16 04:37:24;;;;;;;0.60;0.60;;;;;;;21.12;72.67;100568.22;1948412;30;20063;-62
2022/08/16 04:38:33;;;;;;;0.50;0.50;;;;;;;21.07;73.26;100565.97;1941948;30;20526;-63
2022/08/16 04:39:37;;;;;;;0.60;0.60;;;;;;;21.08;73.02;100564.75;1943615;30;20161;-62
2022/08/16 04:40:56;;;;;;;0.50;0.50;;;;;;;21.03;73.05;100567.19;1945109;30;20091;-62
2022/08/16 04:42:00;;;;;;;0.50;0.50;;;;;;;21.07;72.77;100562.44;1942778;30;20423;-63
2022/08/16 04:43:14;;;;;;;0.60;0.60;;;;;;;21.07;73.09;100559.69;1945892;30;20406;-63
2022/08/16 04:44:21;;;;;;;0.60;0.60;;;;;;;21.08;72.62;100564.75;1954749;30;20048;-63
2022/08/16 04:45:48;;;;;;;0.60;0.60;;;;;;;21.07;72.66;100559.69;1954984;30;20132;-63
2022/08/16 04:47:01;;;;;;;0.50;0.50;;;;;;;21.04;72.89;100561.28;1957533;30;20103;-63
2022/08/16 04:48:24;;;;;;;0.60;0.60;;;;;;;21.04;72.78;100561.28;1956642;30;20470;-63
2022/08/16 04:49:38;;;;;;;0.60;0.60;;;;;;;21.07;72.66;100571.47;1952918;30;20060;-64
2022/08/16 04:50:49;;;;;;;0.60;0.60;;;;;;;21.06;72.38;100575.38;1940722;30;20060;-62
2022/08/16 04:51:54;;;;;;;0.60;0.60;;;;;;;21.08;72.83;100567.50;1942954;30;20527;-64
2022/08/16 04:52:58;;;;;;;0.60;0.60;;;;;;;21.10;72.74;100567.09;1934962;30;20054;-63
2022/08/16 04:54:04;;;;;;;0.60;0.60;;;;;;;21.06;72.62;100572.63;1944419;30;20585;-64
2022/08/16 04:55:10;;;;;;;0.60;0.60;;;;;;;21.11;72.39;100569.41;1957012;30;20056;-64
2022/08/16 04:56:16;;;;;;;0.60;0.60;;;;;;;21.08;72.65;100572.22;1949744;30;20502;-63
2022/08/16 04:57:19;;;;;;;0.60;0.60;;;;;;;21.08;72.49;100569.47;1942900;30;20049;-63
2022/08/16 04:58:22;;;;;;;0.65;0.65;;;;;;;21.08;72.45;100563.97;1942751;30;20054;-63
2022/08/16 04:59:45;;;;;;;0.60;0.60;;;;;;;21.06;72.40;100578.13;1939270;30;20061;-62
2022/08/16 05:00:49;;;;;;;0.60;0.60;;;;;;;21.09;72.42;100569.03;1948575;30;20514;-62
2022/08/16 05:01:56;;;;;;;0.60;0.60;;;;;;;21.10;72.56;100570.63;1949519;30;20065;-62
2022/08/16 05:03:04;;;;;;;0.50;0.50;;;;;;;21.09;72.37;100568.28;1948882;30;20057;-62
2022/08/16 05:04:16;;;;;;;0.60;0.60;;;;;;;21.07;72.58;100571.47;1948453;30;20087;-64
2022/08/16 05:05:22;;;;;;;0.60;0.60;;;;;;;21.09;72.72;100573.78;1951996;30;20114;-63
2022/08/16 05:06:26;;;;;;;0.60;0.60;;;;;;;21.11;72.54;100571.38;1942978;30;20796;-63
2022/08/16 05:07:47;;;;;;;0.55;0.55;;;;;;;21.09;72.31;100574.53;1944984;30;20061;-64
2022/08/16 05:09:03;;;;;;;0.60;0.60;;;;;;;21.07;72.81;100578.91;1952086;30;20068;-63
2022/08/16 05:10:08;;;;;;;0.63;0.63;;;;;;;21.11;72.19;100583.13;1957474;30;20067;-63
2022/08/16 05:11:26;;;;;;;0.60;0.60;;;;;;;21.08;72.64;100570.25;1949861;30;20498;-63
2022/08/16 05:12:33;;;;;;;0.60;0.60;;;;;;;21.09;72.45;100584.75;1946284;30;20058;-64
2022/08/16 05:13:38;;;;;;;0.60;0.60;;;;;;;21.11;72.61;100574.13;1942930;30;20066;-62
2022/08/16 05:14:47;;;;;;;0.50;0.50;;;;;;;21.05;72.87;100576.56;1944199;30;20057;-63
2022/08/16 05:16:08;;;;;;;0.60;0.60;;;;;;;21.09;72.74;100582.78;1947198;30;20479;-64
2022/08/16 05:17:18;;;;;;;0.70;0.70;;;;;;;21.09;72.51;100584.75;1948178;30;20064;-63
2022/08/16 05:18:26;;;;;;;0.60;0.60;;;;;;;21.08;72.33;100578.50;1949688;30;20052;-63
2022/08/16 05:19:31;;;;;;;0.60;0.60;;;;;;;21.07;72.75;100571.47;1939695;30;20054;-62
2022/08/16 05:20:48;;;;;;;0.60;0.60;;;;;;;21.05;72.77;100579.31;1944410;30;20131;-62
2022/08/16 05:22:11;;;;;;;0.60;0.60;;;;;;;21.07;72.31;100574.19;1942668;30;20054;-62
2022/08/16 05:23:24;;;;;;;0.60;0.60;;;;;;;21.09;72.19;100582.78;1942948;30;20107;-62
2022/08/16 05:24:35;;;;;;;0.60;0.60;;;;;;;21.11;72.35;100588.63;1943612;30;20739;-62
2022/08/16 05:25:38;;;;;;;0.60;0.60;;;;;;;21.16;72.30;100584.63;1937527;30;20489;-63
2022/08/16 05:26:50;;;;;;;0.60;0.60;;;;;;;21.19;72.37;100586.53;1949169;30;20548;-63